Time;durP1;ratioP1;P1;durP2;ratioP2;P2;SDS_P1;SDS_P2;PMS_P1;PMS_P2;Temp;Humidity;BMP_temperature;BMP_pressure;BME280_temperature;BME280_humidity;BME280_pressure;Samples;Min_cycle;Max_cycle;Signal;HPM_P1;HPM_P2
2023/05/12 00:00:59;;;;;;;8.30;4.47;;;;;;;13.30;100.00;101479.94;5047658;28;20473;-66
2023/05/12 00:03:26;;;;;;;8.80;4.63;;;;;;;13.29;100.00;101484.59;5053354;28;20053;-65
2023/05/12 00:05:54;;;;;;;7.53;4.88;;;;;;;13.26;100.00;101478.81;5048659;28;20136;-65
2023/05/12 00:08:22;;;;;;;7.72;4.90;;;;;;;13.26;100.00;101473.34;5051726;28;20049;-66
2023/05/12 00:10:49;;;;;;;7.20;4.80;;;;;;;13.28;100.00;101480.22;5053631;28;20049;-66
2023/05/12 00:13:17;;;;;;;8.00;4.45;;;;;;;13.30;100.00;101469.81;5048351;28;20133;-65
2023/05/12 00:15:45;;;;;;;7.85;4.90;;;;;;;13.32;100.00;101469.53;5045957;28;20539;-65
2023/05/12 00:18:13;;;;;;;8.05;5.20;;;;;;;13.28;100.00;101471.19;5039189;28;20412;-65
2023/05/12 00:20:41;;;;;;;8.40;5.00;;;;;;;13.24;100.00;101479.06;5035807;28;20048;-65
2023/05/12 00:23:08;;;;;;;8.27;5.15;;;;;;;13.13;100.00;101474.66;5044667;28;20397;-66
2023/05/12 00:25:36;;;;;;;7.47;4.80;;;;;;;13.14;100.00;101477.13;5050718;28;20076;-66
2023/05/12 00:28:04;;;;;;;8.27;5.18;;;;;;;13.15;100.00;101478.75;5041572;28;20059;-66
2023/05/12 00:30:34;;;;;;;7.75;5.03;;;;;;;13.15;100.00;101478.75;5049053;28;20045;-66
2023/05/12 00:33:02;;;;;;;8.43;5.30;;;;;;;13.02;100.00;101473.81;5041698;28;20048;-66
2023/05/12 00:35:29;;;;;;;7.00;5.00;;;;;;;12.99;100.00;101472.44;5064957;28;20120;-66
2023/05/12 00:37:57;;;;;;;9.93;5.50;;;;;;;13.03;100.00;101469.16;5052593;28;20056;-65
2023/05/12 00:40:25;;;;;;;9.68;5.32;;;;;;;13.02;100.00;101468.34;5043634;28;20051;-66
2023/05/12 00:42:52;;;;;;;9.05;5.75;;;;;;;13.02;100.00;101464.78;5052045;28;20052;-65
2023/05/12 00:45:20;;;;;;;8.55;5.85;;;;;;;13.02;100.00;101462.88;5038648;28;20045;-65
2023/05/12 00:47:49;;;;;;;10.00;5.93;;;;;;;13.02;100.00;101468.34;5038709;28;20561;-65
2023/05/12 00:50:17;;;;;;;10.38;6.35;;;;;;;13.01;100.00;101469.41;5045474;28;20054;-66
2023/05/12 00:52:46;;;;;;;9.38;5.93;;;;;;;12.97;100.00;101465.59;5049088;28;20402;-66
2023/05/12 00:55:14;;;;;;;8.93;5.90;;;;;;;12.95;100.00;101459.56;5037091;28;20494;-65
2023/05/12 00:57:43;;;;;;;8.50;5.97;;;;;;;12.96;100.00;101456.56;5037761;28;20409;-66
2023/05/12 01:00:12;;;;;;;9.15;6.63;;;;;;;12.96;100.00;101461.19;5033233;28;20406;-65
2023/05/12 01:02:41;;;;;;;11.45;6.45;;;;;;;13.00;100.00;101454.91;5039406;28;20068;-65
2023/05/12 01:05:10;;;;;;;8.23;5.90;;;;;;;12.97;100.00;101454.66;5048773;28;20048;-66
2023/05/12 01:07:38;;;;;;;9.73;6.40;;;;;;;12.95;100.00;101452.16;5050605;28;20045;-65
2023/05/12 01:10:27;;;;;;;10.35;6.45;;;;;;;12.95;100.00;101445.88;5033413;28;20077;-65
2023/05/12 01:12:55;;;;;;;12.13;6.78;;;;;;;12.97;100.00;101450.00;5045943;28;20065;-66
2023/05/12 01:15:23;;;;;;;9.88;6.78;;;;;;;12.99;100.00;101447.81;5036663;28;20041;-65
2023/05/12 01:17:55;;;;;;;10.45;6.90;;;;;;;13.02;100.00;101446.44;5052276;28;20075;-66
2023/05/12 01:20:25;;;;;;;10.45;6.32;;;;;;;13.02;100.00;101451.09;5040776;28;20037;-66
2023/05/12 01:22:54;;;;;;;9.60;6.30;;;;;;;12.98;100.00;101448.06;5051035;28;20064;-65
2023/05/12 01:25:24;;;;;;;9.43;6.07;;;;;;;12.88;100.00;101450.78;5032651;28;20489;-66
2023/05/12 01:27:53;;;;;;;15.45;6.60;;;;;;;12.74;100.00;101445.78;5030251;28;20045;-67
2023/05/12 01:30:22;;;;;;;9.70;5.95;;;;;;;12.75;100.00;101444.72;5053564;28;20045;-65
2023/05/12 01:32:51;;;;;;;10.48;5.50;;;;;;;12.72;100.00;101448.00;5025194;28;20444;-66
2023/05/12 01:35:19;;;;;;;8.18;5.72;;;;;;;12.75;100.00;101441.16;5018791;28;20053;-65
2023/05/12 01:37:55;;;;;;;7.70;5.25;;;;;;;12.77;100.00;101438.97;5054647;28;20413;-66
2023/05/12 01:40:23;;;;;;;7.70;5.03;;;;;;;12.82;100.00;101440.91;5053117;28;20748;-66
2023/05/12 01:42:52;;;;;;;7.00;5.00;;;;;;;12.70;100.00;101432.91;5034921;28;20120;-66
2023/05/12 01:45:19;;;;;;;6.57;4.18;;;;;;;12.63;100.00;101435.94;5038764;28;20072;-66
2023/05/12 01:47:48;;;;;;;7.00;4.82;;;;;;;12.62;100.00;101426.06;5042376;28;20525;-66
2023/05/12 01:50:16;;;;;;;7.00;4.70;;;;;;;12.65;100.00;101431.00;5033510;28;20080;-65
2023/05/12 01:52:45;;;;;;;7.22;4.28;;;;;;;12.65;100.00;101430.16;5037490;28;20046;-66
2023/05/12 01:55:16;;;;;;;6.22;4.40;;;;;;;12.66;100.00;101423.63;5050034;28;20045;-66
2023/05/12 01:57:49;;;;;;;8.30;4.32;;;;;;;12.66;100.00;101431.84;5055014;28;20049;-65
2023/05/12 02:00:17;;;;;;;6.15;4.30;;;;;;;12.66;100.00;101429.91;5038575;28;20527;-65
2023/05/12 02:02:47;;;;;;;6.70;4.32;;;;;;;12.61;100.00;101423.63;5041645;28;20103;-66
2023/05/12 02:05:16;;;;;;;6.65;4.40;;;;;;;12.55;100.00;101426.31;5050736;28;20081;-67
2023/05/12 02:07:48;;;;;;;6.55;4.25;;;;;;;12.52;100.00;101421.38;5064858;28;20056;-65
2023/05/12 02:10:16;;;;;;;5.80;4.10;;;;;;;12.55;100.00;101414.53;5034580;28;20103;-64
2023/05/12 02:12:45;;;;;;;5.32;4.05;;;;;;;12.55;100.00;101426.31;5052734;28;20041;-65
2023/05/12 02:15:13;;;;;;;5.25;3.80;;;;;;;12.59;100.00;101415.66;5043871;28;20099;-65
2023/05/12 02:17:44;;;;;;;5.93;3.97;;;;;;;12.64;100.00;101420.34;5026393;28;20447;-65
2023/05/12 02:20:14;;;;;;;5.88;4.00;;;;;;;12.62;100.00;101417.84;5034465;28;20080;-66
2023/05/12 02:22:42;;;;;;;5.88;3.95;;;;;;;12.55;100.00;101420.00;5039004;28;20073;-64
2023/05/12 02:25:10;;;;;;;4.78;3.25;;;;;;;12.55;100.00;101409.06;5062422;28;20497;-65
2023/05/12 02:27:38;;;;;;;6.25;3.65;;;;;;;12.56;100.00;101408.00;5063338;28;20424;-65
2023/05/12 02:30:07;;;;;;;5.72;3.67;;;;;;;12.56;100.00;101408.00;5054469;28;20044;-65
2023/05/12 02:32:36;;;;;;;4.38;3.28;;;;;;;12.54;100.00;101404.72;5054610;28;20070;-65
2023/05/12 02:35:06;;;;;;;7.60;3.30;;;;;;;12.50;100.00;101398.94;5036663;28;20492;-63
2023/05/12 02:37:36;;;;;;;4.20;2.90;;;;;;;12.51;100.00;101399.78;5024657;28;20045;-64
2023/05/12 02:40:05;;;;;;;4.20;2.90;;;;;;;12.50;100.00;101395.41;5048032;28;20120;-65
2023/05/12 02:42:34;;;;;;;5.55;2.90;;;;;;;12.53;100.00;101392.13;5048967;28;20128;-66
2023/05/12 02:45:02;;;;;;;3.22;2.70;;;;;;;12.53;100.00;101383.91;5038705;28;20075;-66
2023/05/12 02:47:32;;;;;;;6.63;2.80;;;;;;;12.48;100.00;101392.09;5054406;28;20045;-66
2023/05/12 02:50:00;;;;;;;3.35;2.90;;;;;;;12.46;100.00;101380.59;5054069;28;20053;-66
2023/05/12 02:52:27;;;;;;;3.33;2.88;;;;;;;12.45;100.00;101381.72;5060122;28;20045;-66
2023/05/12 02:54:56;;;;;;;6.60;3.47;;;;;;;12.39;100.00;101382.75;5053166;28;20065;-66
2023/05/12 02:57:25;;;;;;;4.25;2.90;;;;;;;12.38;100.00;101381.94;5053407;28;20107;-65
2023/05/12 02:59:53;;;;;;;3.83;2.90;;;;;;;12.35;100.00;101377.84;5031838;28;20069;-66
2023/05/12 03:02:21;;;;;;;5.53;3.10;;;;;;;12.30;100.00;101375.09;5047296;28;20064;-67
2023/05/12 03:04:50;;;;;;;6.03;3.70;;;;;;;12.24;100.00;101376.16;5044975;28;20049;-66
2023/05/12 03:07:17;;;;;;;4.28;3.03;;;;;;;12.21;100.00;101381.31;5038809;28;20059;-65
2023/05/12 03:09:45;;;;;;;4.97;3.47;;;;;;;12.19;100.00;101381.56;5035059;28;20049;-66
2023/05/12 03:12:13;;;;;;;6.22;3.38;;;;;;;12.25;100.00;101377.78;5035193;28;20402;-66
2023/05/12 03:14:41;;;;;;;6.45;3.70;;;;;;;12.10;100.00;101385.91;5037877;28;20045;-65
2023/05/12 03:17:08;;;;;;;9.60;4.13;;;;;;;12.09;100.00;101381.53;5034861;28;20073;-66
2023/05/12 03:19:36;;;;;;;7.22;4.35;;;;;;;12.07;100.00;101370.03;5053482;28;20049;-66
2023/05/12 03:22:06;;;;;;;6.68;4.10;;;;;;;12.13;100.00;101371.72;5039314;28;20429;-67
2023/05/12 03:24:35;;;;;;;7.03;4.32;;;;;;;12.21;100.00;101368.47;5050968;28;20059;-65
2023/05/12 03:27:03;;;;;;;6.78;4.22;;;;;;;12.18;100.00;101371.75;5045515;28;20117;-65
2023/05/12 03:29:31;;;;;;;7.70;4.25;;;;;;;12.14;100.00;101371.44;5029368;28;20036;-66
2023/05/12 03:31:59;;;;;;;9.02;5.45;;;;;;;12.20;100.00;101364.13;5052147;28;20067;-65
2023/05/12 03:34:26;;;;;;;9.80;5.53;;;;;;;12.19;100.00;101361.63;5034402;28;20049;-65
2023/05/12 03:36:57;;;;;;;10.63;6.03;;;;;;;12.20;100.00;101363.28;5044531;28;20052;-65
2023/05/12 03:39:25;;;;;;;8.23;5.38;;;;;;;12.23;100.00;101358.09;5032667;28;20434;-65
2023/05/12 03:41:52;;;;;;;8.77;5.70;;;;;;;12.22;100.00;101356.47;5038680;28;20045;-65
2023/05/12 03:44:20;;;;;;;9.40;5.75;;;;;;;12.19;100.00;101356.19;5037796;28;20099;-65
2023/05/12 03:46:48;;;;;;;10.05;6.40;;;;;;;12.14;100.00;101354.22;5034807;28;20455;-65
2023/05/12 03:49:16;;;;;;;10.85;7.20;;;;;;;12.05;100.00;101350.34;5039592;28;20467;-65
2023/05/12 03:51:43;;;;;;;13.65;6.43;;;;;;;11.99;100.00;101351.44;5052254;28;20048;-66
2023/05/12 03:54:12;;;;;;;11.77;7.40;;;;;;;11.99;100.00;101354.16;5039075;28;20481;-66
2023/05/12 03:56:41;;;;;;;10.63;6.82;;;;;;;12.00;100.00;101353.91;5052550;28;20405;-65
2023/05/12 03:59:10;;;;;;;10.48;7.07;;;;;;;11.98;100.00;101353.34;5035175;28;20072;-66
2023/05/12 04:01:38;;;;;;;12.95;7.00;;;;;;;11.93;100.00;101354.13;5025113;28;20067;-67
2023/05/12 04:04:06;;;;;;;13.63;8.23;;;;;;;11.98;100.00;101355.22;5049400;28;20072;-66
2023/05/12 04:06:36;;;;;;;13.60;8.75;;;;;;;11.94;100.00;101361.22;5023170;28;20073;-65
2023/05/12 04:09:03;;;;;;;12.73;8.15;;;;;;;11.87;100.00;101349.72;5025585;28;20129;-66
2023/05/12 04:11:31;;;;;;;15.15;8.98;;;;;;;11.92;100.00;101355.22;5049027;28;20120;-67
2023/05/12 04:14:00;;;;;;;16.42;9.85;;;;;;;11.99;100.00;101356.91;5048067;28;20083;-66
2023/05/12 04:16:27;;;;;;;13.60;9.63;;;;;;;11.99;100.00;101356.91;5047280;28;20053;-66
2023/05/12 04:18:58;;;;;;;14.40;10.18;;;;;;;12.00;100.00;101348.44;5048216;28;20049;-67
2023/05/12 04:21:26;;;;;;;13.27;9.27;;;;;;;11.98;100.00;101363.41;5044425;28;20049;-65
2023/05/12 04:23:53;;;;;;;15.85;10.85;;;;;;;11.95;100.00;101362.03;5052106;28;20102;-66
2023/05/12 04:26:25;;;;;;;17.80;11.85;;;;;;;11.90;100.00;101356.56;5046843;28;20562;-65
2023/05/12 04:28:53;;;;;;;15.50;11.20;;;;;;;11.92;100.00;101357.94;5016054;28;20441;-65
2023/05/12 04:31:21;;;;;;;17.95;12.50;;;;;;;11.94;100.00;101355.75;5011409;28;20413;-66
2023/05/12 04:33:50;;;;;;;20.33;12.55;;;;;;;11.94;100.00;101357.69;5022660;28;20049;-66
2023/05/12 04:36:18;;;;;;;15.55;10.82;;;;;;;11.98;100.00;101350.63;5026025;28;20464;-66
2023/05/12 04:38:46;;;;;;;17.55;11.02;;;;;;;12.01;100.00;101354.72;5030994;28;20053;-65
2023/05/12 04:41:14;;;;;;;19.85;13.80;;;;;;;12.03;100.00;101352.56;5039371;28;20486;-66
2023/05/12 04:43:42;;;;;;;15.20;10.63;;;;;;;12.03;100.00;101358.03;5047162;28;20124;-65
2023/05/12 04:46:13;;;;;;;20.98;14.55;;;;;;;12.07;100.00;101354.47;5046851;28;20401;-66
2023/05/12 04:48:42;;;;;;;18.75;12.90;;;;;;;12.10;100.00;101356.69;5029365;28;20513;-66
2023/05/12 04:51:09;;;;;;;18.70;12.55;;;;;;;12.12;100.00;101365.44;5048418;28;20124;-66
2023/05/12 04:53:37;;;;;;;16.83;12.25;;;;;;;12.09;100.00;101365.13;5039911;28;20083;-66
2023/05/12 04:56:05;;;;;;;20.25;13.68;;;;;;;12.10;100.00;101366.81;5049868;28;20067;-66
2023/05/12 04:58:37;;;;;;;22.95;16.98;;;;;;;12.08;100.00;101366.25;5060082;28;20489;-65
2023/05/12 05:01:05;;;;;;;26.88;17.73;;;;;;;12.07;100.00;101372.78;5015764;28;20128;-65
2023/05/12 05:03:33;;;;;;;23.92;17.40;;;;;;;12.07;100.00;101367.31;5054767;28;20093;-65
2023/05/12 05:06:02;;;;;;;27.23;18.95;;;;;;;12.09;100.00;101378.78;5071796;28;20497;-66
2023/05/12 05:08:29;;;;;;;21.47;15.93;;;;;;;12.09;100.00;101374.16;3993087;28;10001162;-66
2023/05/12 05:10:57;;;;;;;23.52;17.35;;;;;;;12.14;100.00;101384.28;5030094;28;20308;-66
2023/05/12 05:13:27;;;;;;;22.70;16.85;;;;;;;12.21;100.00;101386.78;5038574;28;20049;-66
2023/05/12 05:15:55;;;;;;;22.92;17.13;;;;;;;12.22;100.00;101386.53;5032017;28;20533;-66
2023/05/12 05:18:24;;;;;;;24.98;18.20;;;;;;;12.19;100.00;101392.50;5025730;28;20051;-66
2023/05/12 05:20:54;;;;;;;23.80;17.63;;;;;;;12.20;100.00;101385.97;5019027;28;20049;-66
2023/05/12 05:23:26;;;;;;;25.17;17.35;;;;;;;12.19;100.00;101400.69;5029531;28;20049;-66
2023/05/12 05:25:54;;;;;;;25.95;20.15;;;;;;;12.19;100.00;101395.22;5045675;28;20064;-65
2023/05/12 05:28:23;;;;;;;26.30;20.20;;;;;;;12.21;100.00;101403.19;5049033;28;20076;-65
2023/05/12 05:30:50;;;;;;;28.15;20.10;;;;;;;12.22;100.00;101399.34;5034017;28;20460;-66
2023/05/12 05:33:18;;;;;;;26.15;19.70;;;;;;;12.23;100.00;101401.81;5038913;28;20551;-66
2023/05/12 05:35:47;;;;;;;29.30;21.05;;;;;;;12.29;100.00;101406.25;5044908;28;20048;-65
2023/05/12 05:38:16;;;;;;;24.10;18.25;;;;;;;12.35;100.00;101407.09;5031299;28;20057;-66
2023/05/12 05:40:43;;;;;;;27.13;19.40;;;;;;;12.43;100.00;101408.47;5050375;28;20524;-65
2023/05/12 05:43:20;;;;;;;25.85;18.98;;;;;;;12.47;100.00;101415.06;5050943;28;20051;-66
2023/05/12 05:45:49;;;;;;;28.00;19.90;;;;;;;12.51;100.00;101418.94;5042908;28;20107;-65
2023/05/12 05:48:18;;;;;;;26.80;19.90;;;;;;;12.54;100.00;101429.31;5050808;28;20152;-66
2023/05/12 05:50:47;;;;;;;26.33;18.85;;;;;;;12.57;100.00;101426.84;5031175;28;20494;-66
2023/05/12 05:53:17;;;;;;;25.58;20.08;;;;;;;12.61;100.00;101429.91;5030581;28;20119;-65
2023/05/12 05:55:45;;;;;;;23.73;18.25;;;;;;;12.63;100.00;101427.72;5016890;28;20053;-65
2023/05/12 05:58:14;;;;;;;23.05;17.35;;;;;;;12.68;100.00;101432.38;5044343;28;20064;-66
2023/05/12 06:00:42;;;;;;;29.30;19.65;;;;;;;12.72;100.00;101436.22;5028149;28;20094;-66
2023/05/12 06:03:10;;;;;;;25.35;19.30;;;;;;;12.77;100.00;101434.34;5042315;28;20064;-65
2023/05/12 06:05:40;;;;;;;25.67;20.00;;;;;;;12.83;100.00;101442.56;5029263;28;20402;-66
2023/05/12 06:08:12;;;;;;;24.77;17.95;;;;;;;12.87;100.00;101446.38;5024827;28;20095;-66
2023/05/12 06:10:42;;;;;;;23.70;18.23;;;;;;;12.93;100.00;101450.78;5031095;28;20053;-66
2023/05/12 06:13:10;;;;;;;26.42;18.85;;;;;;;12.96;100.00;101447.50;5049468;28;20655;-66
2023/05/12 06:15:38;;;;;;;22.75;17.55;;;;;;;13.03;100.00;101452.75;5027390;28;20065;-66
2023/05/12 06:18:06;;;;;;;21.58;15.95;;;;;;;13.08;100.00;101455.50;5022673;28;20055;-65
2023/05/12 06:20:33;;;;;;;23.75;17.40;;;;;;;13.12;100.00;101464.81;5022116;28;20053;-65
2023/05/12 06:23:01;;;;;;;24.58;17.10;;;;;;;13.14;100.00;101455.25;5050228;28;20390;-65
2023/05/12 06:25:31;;;;;;;21.48;14.43;;;;;;;13.17;100.00;101471.09;5054823;28;20104;-65
2023/05/12 06:28:00;;;;;;;21.02;16.52;;;;;;;13.24;100.00;101481.00;5046639;28;20528;-64
2023/05/12 06:30:28;;;;;;;21.60;15.43;;;;;;;13.28;100.00;101476.66;5047525;28;20065;-66
2023/05/12 06:32:56;;;;;;;17.33;13.77;;;;;;;13.33;100.00;101473.94;5044870;28;20053;-66
2023/05/12 06:35:23;;;;;;;21.88;15.10;;;;;;;13.37;100.00;101475.00;5041939;28;20486;-67
2023/05/12 06:37:51;;;;;;;19.08;13.23;;;;;;;13.38;100.00;101477.50;5034488;28;20060;-65
2023/05/12 06:40:19;;;;;;;23.25;17.17;;;;;;;13.43;100.00;101482.16;5035176;28;20125;-65
2023/05/12 06:42:47;;;;;;;21.45;16.23;;;;;;;13.48;100.00;101481.34;5053885;28;20053;-64
2023/05/12 06:45:19;;;;;;;21.92;16.20;;;;;;;13.49;100.00;101489.28;5055663;28;20075;-64
2023/05/12 06:47:48;;;;;;;21.73;16.90;;;;;;;13.50;100.00;101482.72;5054789;28;20041;-64
2023/05/12 06:50:16;;;;;;;17.63;14.50;;;;;;;13.50;100.00;101496.41;5037522;28;20485;-65
2023/05/12 06:52:44;;;;;;;20.00;14.82;;;;;;;13.50;100.00;101499.16;5055369;28;20047;-65
2023/05/12 06:55:12;;;;;;;18.70;14.55;;;;;;;13.49;100.00;101493.94;5035214;28;20128;-65
2023/05/12 06:57:40;;;;;;;18.27;12.52;;;;;;;13.52;100.00;101499.69;5019860;28;20084;-66
2023/05/12 07:00:09;;;;;;;16.55;12.98;;;;;;;13.58;100.00;101503.25;5039293;28;20512;-66
2023/05/12 07:02:37;;;;;;;20.67;14.48;;;;;;;13.63;100.00;101508.75;5040234;28;20559;-65
2023/05/12 07:05:05;;;;;;;23.23;13.95;;;;;;;13.64;100.00;101505.75;5048827;28;20073;-66
2023/05/12 07:07:34;;;;;;;20.65;13.02;;;;;;;13.69;100.00;101509.59;5060882;28;20103;-66
2023/05/12 07:10:02;;;;;;;17.70;12.52;;;;;;;13.69;100.00;101515.06;5056656;28;20045;-66
2023/05/12 07:12:31;;;;;;;17.35;11.63;;;;;;;13.72;100.00;101514.50;5063027;28;20049;-65
2023/05/12 07:14:58;;;;;;;17.25;11.70;;;;;;;13.75;100.00;101513.97;5043121;28;20079;-65
2023/05/12 07:17:27;;;;;;;17.73;11.75;;;;;;;13.76;100.00;101518.38;5054177;28;20067;-65
2023/05/12 07:19:55;;;;;;;17.75;10.95;;;;;;;13.79;100.00;101509.59;5053250;28;20524;-63
2023/05/12 07:22:23;;;;;;;13.55;9.38;;;;;;;13.82;100.00;101509.03;5053656;28;20441;-66
2023/05/12 07:24:50;;;;;;;12.70;8.40;;;;;;;13.86;100.00;101510.16;5052909;28;20057;-66
2023/05/12 07:27:18;;;;;;;13.52;9.38;;;;;;;13.91;100.00;101520.28;5054513;28;20124;-66
2023/05/12 07:29:46;;;;;;;13.82;8.95;;;;;;;13.93;100.00;101516.19;5052151;28;20040;-66
2023/05/12 07:32:13;;;;;;;12.85;8.23;;;;;;;13.95;100.00;101516.72;5041943;28;20107;-65
2023/05/12 07:34:41;;;;;;;12.45;8.15;;;;;;;13.99;100.00;101520.53;5034524;28;20045;-64
2023/05/12 07:37:08;;;;;;;12.10;7.55;;;;;;;14.03;100.00;101520.84;5046874;28;20045;-65
2023/05/12 07:39:37;;;;;;;14.85;7.53;;;;;;;14.07;100.00;101530.16;5036212;28;20061;-64
2023/05/12 07:42:05;;;;;;;12.85;6.82;;;;;;;14.10;100.00;101531.53;5053470;28;20056;-64
2023/05/12 07:44:32;;;;;;;10.52;6.90;;;;;;;14.12;100.00;101518.34;5052765;28;20048;-65
2023/05/12 07:47:00;;;;;;;10.02;6.28;;;;;;;14.15;100.00;101521.38;5058444;28;20054;-65
2023/05/12 07:49:28;;;;;;;8.75;5.97;;;;;;;14.17;100.00;101515.63;5036496;28;20041;-64
2023/05/12 07:51:56;;;;;;;15.48;6.30;;;;;;;14.20;100.00;101528.78;5050713;28;20045;-65
2023/05/12 07:54:23;;;;;;;13.02;6.30;;;;;;;14.25;100.00;101523.28;5050547;28;20055;-64
2023/05/12 07:56:51;;;;;;;9.32;5.70;;;;;;;14.27;100.00;101529.31;5054095;28;20452;-66
2023/05/12 07:59:19;;;;;;;9.77;5.28;;;;;;;14.27;100.00;101532.06;5053840;28;20051;-65
2023/05/12 08:01:46;;;;;;;10.93;5.78;;;;;;;14.32;100.00;101532.06;5053895;28;20076;-66
2023/05/12 08:04:14;;;;;;;10.77;5.60;;;;;;;14.36;100.00;101546.00;5050151;28;20124;-66
2023/05/12 08:06:42;;;;;;;9.00;4.95;;;;;;;14.40;100.00;101542.44;5038082;28;20397;-65
2023/05/12 08:09:09;;;;;;;9.02;4.88;;;;;;;14.44;100.00;101543.56;5045674;28;20052;-65
2023/05/12 08:11:37;;;;;;;6.43;4.55;;;;;;;14.50;100.00;101541.63;5052863;28;20128;-65
2023/05/12 08:14:05;;;;;;;14.00;5.57;;;;;;;14.51;100.00;101539.72;5053595;28;20049;-66
2023/05/12 08:16:32;;;;;;;7.70;4.47;;;;;;;14.55;100.00;101543.56;5045651;28;20041;-65
2023/05/12 08:19:00;;;;;;;8.68;4.40;;;;;;;14.60;100.00;101547.13;5048171;28;20470;-65
2023/05/12 08:21:28;;;;;;;9.45;4.70;;;;;;;14.66;100.00;101547.94;5052737;28;20423;-65
2023/05/12 08:23:56;;;;;;;7.18;4.47;;;;;;;14.69;100.00;101555.59;5053234;28;20052;-65
2023/05/12 08:26:23;;;;;;;9.27;4.60;;;;;;;14.72;100.00;101555.06;5051865;28;20071;-65
2023/05/12 08:28:52;;;;;;;12.20;4.38;;;;;;;14.72;100.00;101554.22;5053319;28;20123;-65
2023/05/12 08:31:21;;;;;;;11.75;4.88;;;;;;;14.71;100.00;101558.88;5050930;28;20456;-64
2023/05/12 08:33:49;;;;;;;7.35;4.45;;;;;;;14.72;100.00;101565.19;5051120;28;20091;-64
2023/05/12 08:36:36;;;;;;;7.82;4.43;;;;;;;14.75;100.00;101559.16;5051756;28;20044;-66
2023/05/12 08:39:03;;;;;;;13.38;5.03;;;;;;;14.84;100.00;101563.81;5049959;28;20132;-64
2023/05/12 08:41:37;;;;;;;10.80;5.38;;;;;;;14.85;100.00;101565.44;5050889;28;20053;-65
2023/05/12 08:44:05;;;;;;;9.48;4.75;;;;;;;14.86;100.00;101571.75;5052706;28;20134;-66
2023/05/12 08:46:33;;;;;;;6.95;4.38;;;;;;;14.89;100.00;101572.03;5046943;28;20051;-66
2023/05/12 08:49:02;;;;;;;8.23;4.57;;;;;;;14.97;100.00;101567.06;5052044;28;20112;-65
2023/05/12 08:51:33;;;;;;;9.32;4.40;;;;;;;15.04;100.00;101573.06;5054578;28;20128;-66
2023/05/12 08:54:03;;;;;;;5.85;4.20;;;;;;;15.11;100.00;101579.91;5052824;28;20400;-63
2023/05/12 08:56:31;;;;;;;10.68;4.75;;;;;;;15.19;100.00;101580.44;5051052;28;20061;-65
2023/05/12 08:59:04;;;;;;;7.63;3.97;;;;;;;15.24;100.00;101583.97;5036123;28;20067;-64
2023/05/12 09:01:34;;;;;;;8.35;4.53;;;;;;;15.26;100.00;101580.94;5052919;28;20123;-65
2023/05/12 09:04:06;;;;;;;8.57;4.13;;;;;;;15.27;100.00;101583.44;5051429;28;20524;-65
2023/05/12 09:06:35;;;;;;;7.22;3.90;;;;;;;15.33;100.00;101587.78;5053917;28;20366;-65
2023/05/12 09:09:03;;;;;;;11.75;4.75;;;;;;;15.34;100.00;101589.44;5051765;28;20490;-65
2023/05/12 09:11:30;;;;;;;9.20;4.10;;;;;;;15.30;100.00;101582.84;5054643;28;20080;-65
2023/05/12 09:14:03;;;;;;;7.85;3.80;;;;;;;15.28;100.00;101584.25;5051316;28;20045;-65
2023/05/12 09:16:43;;;;;;;8.85;4.82;;;;;;;15.29;100.00;101591.38;5035439;28;20065;-65
2023/05/12 09:19:10;;;;;;;7.22;4.10;;;;;;;15.40;100.00;101597.66;5035716;28;20045;-65
2023/05/12 09:21:39;;;;;;;8.25;4.13;;;;;;;15.47;100.00;101592.69;5054862;28;20056;-65
2023/05/12 09:24:07;;;;;;;9.75;4.10;;;;;;;15.52;100.00;101585.22;5051111;28;20045;-65
2023/05/12 09:26:52;;;;;;;9.55;4.47;;;;;;;15.55;100.00;101594.81;5052310;28;20124;-64
2023/05/12 09:29:20;;;;;;;7.78;4.22;;;;;;;15.62;100.00;101587.09;5046881;28;20045;-66
2023/05/12 09:32:00;;;;;;;7.72;4.07;;;;;;;15.66;100.00;101596.41;5021202;28;20056;-65
2023/05/12 09:34:31;;;;;;;7.70;4.20;;;;;;;15.68;100.00;101594.22;5041901;28;20497;-65
2023/05/12 09:37:00;;;;;;;7.80;3.92;;;;;;;15.74;100.00;101582.09;5052156;28;20060;-66
2023/05/12 09:39:28;;;;;;;7.43;4.00;;;;;;;15.77;100.00;101594.44;5051941;28;20055;-66
2023/05/12 09:41:56;;;;;;;7.40;3.92;;;;;;;15.79;100.00;101595.00;5019039;28;20053;-66
2023/05/12 09:44:25;;;;;;;6.65;3.58;;;;;;;15.81;100.00;101592.78;5041754;28;20050;-68
2023/05/12 09:46:53;;;;;;;5.45;3.55;;;;;;;15.89;99.95;101599.59;5031534;28;20072;-67
2023/05/12 09:49:24;;;;;;;8.18;3.50;;;;;;;15.93;95.84;101597.94;5033969;28;20057;-66
2023/05/12 09:51:57;;;;;;;5.43;3.63;;;;;;;15.97;96.64;101602.56;5035691;28;20500;-65
2023/05/12 09:54:28;;;;;;;6.88;3.53;;;;;;;15.95;96.75;101602.03;5049336;28;20040;-65
2023/05/12 09:57:02;;;;;;;6.10;3.30;;;;;;;15.90;95.65;101612.25;5055818;28;20103;-65
2023/05/12 09:59:32;;;;;;;8.75;3.28;;;;;;;15.88;96.47;101609.78;5054229;28;20069;-65
2023/05/12 10:02:01;;;;;;;5.40;3.45;;;;;;;15.86;96.25;101611.97;5055817;28;20099;-64
2023/05/12 10:04:38;;;;;;;8.27;3.55;;;;;;;15.88;97.47;101611.72;5056085;28;20049;-66
2023/05/12 10:07:11;;;;;;;6.32;3.30;;;;;;;15.92;95.69;101601.78;5055419;28;20045;-67
2023/05/12 10:09:41;;;;;;;9.30;3.50;;;;;;;16.02;94.51;101609.97;5054202;28;20049;-65
2023/05/12 10:12:10;;;;;;;9.73;3.58;;;;;;;16.07;93.87;101607.19;5053807;28;20053;-66
2023/05/12 10:14:40;;;;;;;7.70;3.30;;;;;;;16.14;96.03;101609.63;5061540;28;20123;-65
2023/05/12 10:17:09;;;;;;;7.88;3.58;;;;;;;16.20;92.81;101611.19;5032808;28;20045;-66
2023/05/12 10:19:37;;;;;;;12.10;3.88;;;;;;;16.24;93.25;101616.97;5035077;28;20081;-65
2023/05/12 10:22:05;;;;;;;12.38;3.97;;;;;;;16.28;92.56;101618.00;5032292;28;20048;-66
2023/05/12 10:24:33;;;;;;;7.88;3.67;;;;;;;16.27;91.32;101619.94;5044178;28;20041;-66
2023/05/12 10:27:02;;;;;;;4.35;3.30;;;;;;;16.24;90.83;101620.53;5053928;28;20041;-65
2023/05/12 10:29:31;;;;;;;5.68;3.30;;;;;;;16.22;89.26;101624.69;5054506;28;20052;-66
2023/05/12 10:32:00;;;;;;;9.98;3.40;;;;;;;16.23;90.40;101621.63;5055425;28;20049;-63
2023/05/12 10:34:33;;;;;;;7.85;3.50;;;;;;;16.17;89.04;101623.59;5053525;28;20107;-66
2023/05/12 10:37:07;;;;;;;10.05;3.78;;;;;;;16.17;90.46;101620.03;5061692;28;20405;-65
2023/05/12 10:39:36;;;;;;;9.65;4.07;;;;;;;16.13;88.44;101621.69;5074852;28;20094;-65
2023/05/12 10:42:08;;;;;;;6.50;3.40;;;;;;;16.11;89.74;101624.72;5075551;28;20049;-65
2023/05/12 10:44:46;;;;;;;8.93;3.47;;;;;;;16.11;90.20;101630.22;5057119;28;20565;-65
2023/05/12 10:47:15;;;;;;;8.25;3.55;;;;;;;16.14;90.65;101637.94;5056688;28;20045;-64
2023/05/12 10:49:43;;;;;;;7.60;3.83;;;;;;;16.22;90.37;101636.50;5055694;28;20489;-66
2023/05/12 10:52:12;;;;;;;7.30;3.80;;;;;;;16.24;87.90;101642.53;5054221;28;20568;-65
2023/05/12 10:54:45;;;;;;;16.65;7.22;;;;;;;16.21;87.44;101645.00;5036165;28;20053;-64
2023/05/12 10:57:14;;;;;;;9.23;3.55;;;;;;;16.16;88.74;101632.97;5055427;28;20053;-65
2023/05/12 10:59:57;;;;;;;19.52;8.35;;;;;;;16.15;90.57;101645.06;5056681;28;20045;-65
2023/05/12 11:02:32;;;;;;;20.33;9.73;;;;;;;16.21;90.80;101639.50;5056083;28;20075;-67
2023/05/12 11:05:03;;;;;;;;;;;;;;;16.23;89.38;101642.81;5041779;28;20052;-66
2023/05/12 11:07:33;;;;;;;14.88;5.43;;;;;;;16.22;87.77;101650.25;5047464;28;19950;-66
2023/05/12 11:10:03;;;;;;;11.38;5.60;;;;;;;16.19;85.54;101643.38;5072307;28;20097;-65
2023/05/12 11:12:36;;;;;;;11.60;6.72;;;;;;;16.16;86.37;101643.97;5058872;28;20076;-66
2023/05/12 11:15:05;;;;;;;14.45;7.22;;;;;;;16.13;86.55;101655.50;5060135;28;20037;-67
2023/05/12 11:17:37;;;;;;;15.80;8.73;;;;;;;16.13;86.92;101646.44;5059483;28;20045;-66
2023/05/12 11:20:06;;;;;;;20.15;11.32;;;;;;;16.24;86.10;101649.97;5054545;28;20048;-67